Currently 59°F in Simi Valley, California, USA
59°F
68°F / 47°F
4 mph SE
0.01"
Wednesday, May 22, 2019 8:40 PM PDT

Simi Valley, California Weather Summary
Last 36 Hours

Temperature Winds Hourly Humidity Dewpoint
Time Report Norm Report Norm Max Gusts Precip. Rpt. Norm Rpt. Norm Pressure
1Wed 08:40 PM  59.5°F  62°F  4 mph SE  3 mph  7 mph  0.00"  61%  69%  46°F  52°F  29.74"
Wed 08:00 PM  61.6°F  64°F  4 mph E  3 mph  11 mph  0.00"  56%  66%  45°F  52°F  29.72"
Wed 07:00 PM  67.7°F  68°F  3 mph SE  5 mph  10 mph  0.00"  49%  59%  47°F  52°F  29.71"
2Wed 06:45 PM  68.5°F  68°F  2 mph SE  5 mph  8 mph  ----  49%  58%  48°F  52°F  29.70"
Wed 06:00 PM  66.9°F  70°F  3 mph S  6 mph  11 mph  0.00"  51%  55%  48°F  52°F  29.70"
Wed 05:00 PM  66.1°F  71°F  5 mph E  6 mph  9 mph  0.00"  50%  53%  46°F  52°F  29.69"
Wed 04:00 PM  64.5°F  72°F  3 mph S  7 mph  16 mph  0.00"  53%  52%  46°F  53°F  29.70"
Wed 03:00 PM  64.2°F  72°F  4 mph S  7 mph  23 mph  0.00"  51%  52%  45°F  53°F  29.69"
Wed 02:00 PM  63.2°F  72°F  11 mph W  7 mph  22 mph  0.01"  55%  52%  46°F  53°F  29.69"
Wed 01:00 PM  64.3°F  72°F  6 mph W  6 mph  19 mph  0.00"  50%  53%  45°F  53°F  29.68"
Wed 12:00 PM  67.4°F  71°F  6 mph NW  5 mph  16 mph  0.00"  38%  55%  40°F  53°F  29.69"
Wed 11:00 AM  65.3°F  69°F  3 mph NE  4 mph  17 mph  0.00"  44%  59%  42°F  53°F  29.70"
Wed 10:00 AM  61.7°F  65°F  6 mph NW  3 mph  14 mph  0.00"  50%  65%  42°F  53°F  29.71"
Wed 09:00 AM  55.2°F  62°F  calm  2 mph  8 mph  0.00"  73%  73%  47°F  53°F  29.71"
Wed 08:00 AM  51.4°F  58°F  6 mph SW  2 mph  5 mph  0.00"  85%  79%  47°F  52°F  29.71"
Wed 07:00 AM  47.6°F  55°F  2 mph N  1 mph  8 mph  0.00"  88%  82%  44°F  49°F  29.71"
3Wed 06:46 AM  47.1°F  54°F  calm  1 mph  8 mph  ----  88%  82%  44°F  48°F  29.71"
Wed 06:00 AM  48.0°F  53°F  calm  2 mph  2 mph  0.00"  87%  82%  44°F  48°F  29.70"
Wed 05:00 AM  49.3°F  54°F  calm  2 mph  7 mph  0.00"  87%  81%  45°F  48°F  29.70"
Wed 04:00 AM  49.7°F  54°F  5 mph NW  1 mph  9 mph  0.00"  88%  80%  46°F  48°F  29.70"
Wed 03:00 AM  50.4°F  55°F  calm  2 mph  5 mph  0.00"  86%  78%  46°F  48°F  29.71"
Wed 02:00 AM  52.6°F  56°F  calm  2 mph  5 mph  0.00"  81%  78%  47°F  48°F  29.72"
Wed 01:00 AM  53.5°F  56°F  calm  2 mph  9 mph  0.00"  80%  76%  47°F  49°F  29.75"
Wed 12:00 AM  54.3°F  57°F  5 mph NW  2 mph  9 mph  0.00"  78%  75%  47°F  49°F  29.76"
Tue 11:00 PM  55.8°F  58°F  2 mph SW  2 mph  7 mph  0.00"  74%  74%  47°F  50°F  29.76"
Tue 10:00 PM  56.1°F  60°F  calm  1 mph  8 mph  0.00"  73%  73%  47°F  51°F  29.76"
Tue 09:00 PM  58.0°F  61°F  6 mph W  2 mph  9 mph  0.00"  69%  70%  47°F  51°F  29.74"
Tue 08:00 PM  60.3°F  64°F  6 mph W  3 mph  12 mph  0.00"  64%  66%  48°F  52°F  29.72"
Tue 07:00 PM  63.6°F  67°F  3 mph SW  5 mph  16 mph  0.00"  58%  59%  48°F  52°F  29.72"
Tue 06:00 PM  65.6°F  70°F  9 mph SW  6 mph  15 mph  0.00"  55%  55%  48°F  52°F  29.72"
Tue 05:00 PM  66.5°F  71°F  9 mph SW  6 mph  19 mph  0.00"  54%  53%  49°F  52°F  29.74"
Tue 04:00 PM  64.8°F  72°F  8 mph SW  7 mph  21 mph  0.00"  56%  52%  48°F  52°F  29.76"
Tue 03:00 PM  66.3°F  72°F  12 mph SW  7 mph  18 mph  0.00"  52%  52%  48°F  53°F  29.78"
Tue 02:00 PM  64.3°F  72°F  10 mph W  7 mph  19 mph  0.00"  58%  52%  48°F  53°F  29.81"
Tue 01:00 PM  61.9°F  72°F  9 mph W  6 mph  19 mph  0.00"  65%  53%  50°F  53°F  29.83"
Tue 12:00 PM  61.5°F  71°F  9 mph SW  5 mph  19 mph  0.00"  66%  55%  50°F  53°F  29.85"
Tue 11:00 AM  60.9°F  69°F  7 mph SW  4 mph  19 mph  0.00"  66%  59%  49°F  53°F  29.86"
Tue 10:00 AM  58.8°F  66°F  4 mph W  3 mph  13 mph  0.00"  70%  65%  49°F  53°F  29.88"
Tue 09:00 AM  56.8°F  62°F  6 mph W  2 mph  12 mph  0.00"  81%  73%  51°F  53°F  29.89"

  1. Current weather data. No green row appears if the current weather data is also the high or low for the current day.
  2. High temperature for the current day.
  3. Low temperature for the current day.

The Simi Valley, California weather pages are a service of WeatherCurrents.
Copyright ©2019  WeatherCurrents. All rights reserved. - Submit questions and comments - Privacy Policy

This page automatically refreshes every 10 minutes.